Bethel Park, PA

11:08 AM EST on December 20, 2014 (GMT -0500)
Sunset Acres, McMurray PA KPACANON6 | Change Station
CLOSE
Current Station
Personal Weather Station
Location: Canonsburg, PA
Elevation: 1161 ft
Nearby Weather Stations

Elev 1161 ft 40.30 °N, 80.10 °W | Updated 12 minutes ago

Overcast
Overcast
29.8 °F
Feels Like 30 °F
N
1.7
Wind Variable Wind from SE

Today
High -- | Low -- °F
--% Chance of Precip.
Yesterday
High -- | Low -- °F
Precip. -- in
7:38 AM 4:56 PM
Waning Crescent, 3% visible
Pressure 30.31 in
Visibility 10.0 miles
Clouds Overcast 2400 ft
Windchill 30 °F
Dew Point 22 °F
Humidity 73%
Rainfall 0.00 in
Snow Depth Not available.
UV 1 out of 12
Pollen .10 out of 12
Air Quality Not available.
Flu Activity Not available.
METAR KAGC 201553Z 00000KT 10SM OVC024 M02/M09 A3025 RMK AO2 SLP263 T10221089

More Conditions Fewer Conditions

Pressure 30.31 in
Visibility 10.0 miles
Clouds Overcast 2400 ft
Windchill 30 °F
Dew Point 22 °F
Humidity 73%
Rainfall 0.00 in
Snow Depth Not available.
UV 1 out of 12
Pollen .10 out of 12
Air Quality Not available.
Flu Activity Not available.
METAR KAGC 201553Z 00000KT 10SM OVC024 M02/M09 A3025 RMK AO2 SLP263 T10221089

More Conditions Fewer Conditions

10-Day Weather Forecast

Almanac

Astronomy

Dec. 20, 2014 Rise Set
Actual Time
Civil Twilight
Nautical Twilight
Astronomical Twilight
Moon
Length of Visible Light
Length of Day
Tomorrow will be .
, % of the Moon is Illuminated

Today's Extremes

State Highs State Lows

Community

WunderPhotos

Upload Photos

1,779,212 photos uploaded!

WunderBlogs® & News

Nearby

Air Quality

  Air Quality AQ Index Pollutant
Not available.

Snow Depth

Station Depth Elevation

Earthquake Activity

City Distance Mag. Time & Date
Minimum magnitude displayed is 2.5.

Coastal Water Temperatures

Place Temperature

Nearby Weather Stations